createdAt,value
2023-01-30T00:01:36.989Z,7.63
2023-01-30T00:04:05.849Z,8.43
2023-01-30T00:06:34.750Z,8.70
2023-01-30T00:09:03.437Z,7.90
2023-01-30T00:11:33.347Z,8.70
2023-01-30T00:14:03.209Z,8.73
2023-01-30T00:16:33.346Z,8.70
2023-01-30T00:19:02.094Z,8.33
2023-01-30T00:21:30.876Z,8.20
2023-01-30T00:24:01.004Z,8.17
2023-01-30T00:26:29.941Z,8.10
2023-01-30T00:28:58.738Z,8.47
2023-01-30T00:31:27.624Z,8.60
2023-01-30T00:33:57.803Z,8.03
2023-01-30T00:36:27.445Z,8.07
2023-01-30T00:38:59.376Z,7.93
2023-01-30T00:41:48.375Z,7.77
2023-01-30T00:44:34.864Z,8.63
2023-01-30T00:47:06.699Z,8.10
2023-01-30T00:49:37.402Z,8.43
2023-01-30T00:52:06.745Z,7.77
2023-01-30T00:54:36.119Z,9.00
2023-01-30T00:57:04.906Z,7.90
2023-01-30T00:59:33.636Z,8.40
2023-01-30T01:02:02.404Z,8.40
2023-01-30T01:04:31.161Z,8.70
2023-01-30T01:07:01.365Z,8.10
2023-01-30T01:09:30.118Z,8.53
2023-01-30T01:11:58.944Z,7.73
2023-01-30T01:14:27.985Z,8.13
2023-01-30T01:16:56.910Z,7.33
2023-01-30T01:19:25.895Z,7.50
2023-01-30T01:21:54.666Z,7.57
2023-01-30T01:24:24.821Z,7.90
2023-01-30T01:26:53.651Z,7.73
2023-01-30T01:29:22.562Z,8.37
2023-01-30T01:31:52.330Z,7.50
2023-01-30T01:34:21.178Z,7.67
2023-01-30T01:36:53.799Z,8.40
2023-01-30T01:39:24.933Z,8.97
2023-01-30T01:41:52.882Z,8.63
2023-01-30T01:44:21.663Z,8.17
2023-01-30T01:46:55.529Z,8.03
2023-01-30T01:49:29.351Z,8.13
2023-01-30T01:52:03.415Z,8.00
2023-01-30T01:54:41.197Z,8.60
2023-01-30T01:57:17.322Z,8.43
2023-01-30T01:59:52.966Z,8.33
2023-01-30T02:02:22.872Z,8.63
2023-01-30T02:05:03.114Z,8.30
2023-01-30T02:07:38.857Z,9.00
2023-01-30T02:10:15.046Z,9.13
2023-01-30T02:12:46.188Z,9.00
2023-01-30T02:15:15.789Z,9.23
2023-01-30T02:17:44.598Z,9.33
2023-01-30T02:20:28.645Z,8.80
2023-01-30T02:23:35.373Z,8.73
2023-01-30T02:26:56.216Z,8.40
2023-01-30T02:30:16.204Z,8.33
2023-01-30T02:32:58.313Z,9.30
2023-01-30T02:35:42.189Z,8.10
2023-01-30T02:38:29.363Z,9.53
2023-01-30T02:41:15.014Z,8.90
2023-01-30T02:43:58.345Z,8.57
2023-01-30T02:46:35.646Z,8.53
2023-01-30T02:49:14.246Z,8.07
2023-01-30T02:51:46.218Z,8.50
2023-01-30T02:54:17.722Z,8.57
2023-01-30T02:56:53.527Z,7.90
2023-01-30T02:59:30.767Z,8.10
2023-01-30T03:02:34.042Z,8.80
2023-01-30T03:05:38.999Z,7.80
2023-01-30T03:08:25.353Z,8.50
2023-01-30T03:11:01.699Z,8.10
2023-01-30T03:13:46.897Z,8.57
2023-01-30T03:16:22.643Z,7.67
2023-01-30T03:18:52.036Z,8.10
2023-01-30T03:21:22.184Z,6.97
2023-01-30T03:23:54.362Z,7.87
2023-01-30T03:26:30.285Z,8.00
2023-01-30T03:28:59.784Z,7.73
2023-01-30T03:31:28.877Z,7.47
2023-01-30T03:33:58.009Z,7.30
2023-01-30T03:36:28.410Z,6.60
2023-01-30T03:38:59.535Z,6.30
2023-01-30T03:41:28.415Z,6.93
2023-01-30T03:43:57.124Z,6.63
2023-01-30T03:46:25.987Z,6.60
2023-01-30T03:48:55.416Z,5.97
2023-01-30T03:51:24.159Z,6.60
2023-01-30T03:53:54.327Z,7.20
2023-01-30T03:56:25.279Z,5.90
2023-01-30T03:58:54.163Z,7.57
2023-01-30T04:01:32.074Z,6.63
2023-01-30T04:04:01.210Z,7.23
2023-01-30T04:06:30.784Z,6.83
2023-01-30T04:09:00.950Z,6.77
2023-01-30T04:11:39.250Z,7.10
2023-01-30T04:14:08.353Z,7.03
2023-01-30T04:16:46.266Z,7.63
2023-01-30T04:19:38.591Z,7.40
2023-01-30T04:22:10.842Z,7.17
2023-01-30T04:24:41.671Z,7.83
2023-01-30T04:27:10.785Z,7.37
2023-01-30T04:29:48.213Z,8.37
2023-01-30T04:32:17.061Z,7.30
2023-01-30T04:34:45.726Z,7.30
2023-01-30T04:37:14.844Z,7.37
2023-01-30T04:39:45.450Z,7.00
2023-01-30T04:42:14.226Z,6.97
2023-01-30T04:44:57.554Z,6.90
2023-01-30T04:47:30.100Z,7.40
2023-01-30T04:49:58.952Z,7.50
2023-01-30T04:52:28.066Z,7.50
2023-01-30T04:54:58.337Z,6.77
2023-01-30T04:57:27.340Z,7.57
2023-01-30T04:59:56.108Z,7.50
2023-01-30T05:02:26.622Z,7.40
2023-01-30T05:04:55.540Z,7.13
2023-01-30T05:07:24.445Z,7.57
2023-01-30T05:09:53.501Z,7.93
2023-01-30T05:12:24.096Z,7.50
2023-01-30T05:14:52.918Z,7.10
2023-01-30T05:17:21.767Z,7.37
2023-01-30T05:19:50.535Z,7.17
2023-01-30T05:22:19.251Z,6.90
2023-01-30T05:24:48.841Z,7.47
2023-01-30T05:27:17.889Z,6.97
2023-01-30T05:29:48.245Z,7.23
2023-01-30T05:32:19.369Z,8.00
2023-01-30T05:34:49.993Z,7.50
2023-01-30T05:37:18.743Z,7.00
2023-01-30T05:39:47.607Z,7.30
2023-01-30T05:42:16.814Z,7.13
2023-01-30T05:44:48.401Z,8.00
2023-01-30T05:47:17.344Z,7.83
2023-01-30T05:49:49.294Z,7.33
2023-01-30T05:52:18.075Z,8.30
2023-01-30T05:54:56.553Z,7.53
2023-01-30T05:57:25.390Z,7.43
2023-01-30T05:59:55.426Z,8.17
2023-01-30T06:02:24.128Z,7.40
2023-01-30T06:04:52.810Z,7.10
2023-01-30T06:07:21.470Z,7.23
2023-01-30T06:09:50.266Z,7.80
2023-01-30T06:12:18.925Z,7.03
2023-01-30T06:14:47.590Z,7.33
2023-01-30T06:17:17.728Z,6.90
2023-01-30T06:19:46.453Z,6.50
2023-01-30T06:22:15.128Z,6.80
2023-01-30T06:24:43.793Z,7.57
2023-01-30T06:27:14.485Z,7.10
2023-01-30T06:29:43.174Z,7.07
2023-01-30T06:32:11.942Z,6.60
2023-01-30T06:34:41.989Z,7.17
2023-01-30T06:37:10.611Z,7.47
2023-01-30T06:39:39.253Z,6.70
2023-01-30T06:42:08.253Z,7.07
2023-01-30T06:44:37.016Z,6.83
2023-01-30T06:47:05.912Z,6.70
2023-01-30T06:49:34.604Z,7.27
2023-01-30T06:52:05.042Z,7.07
2023-01-30T06:54:33.760Z,6.93
2023-01-30T06:57:02.420Z,7.03
2023-01-30T06:59:31.159Z,7.40
2023-01-30T07:01:59.887Z,7.77
2023-01-30T07:04:28.720Z,7.33
2023-01-30T07:06:57.573Z,7.80
2023-01-30T07:09:27.707Z,7.20
2023-01-30T07:11:56.340Z,7.23
2023-01-30T07:14:25.045Z,8.17
2023-01-30T07:16:53.833Z,7.10
2023-01-30T07:19:22.506Z,7.80
2023-01-30T07:21:51.251Z,6.87
2023-01-30T07:24:20.017Z,6.80
2023-01-30T07:26:51.121Z,6.57
2023-01-30T07:29:20.137Z,6.47
2023-01-30T07:31:48.850Z,7.07
2023-01-30T07:34:17.572Z,7.10
2023-01-30T07:36:46.258Z,6.63
2023-01-30T07:39:14.977Z,6.43
2023-01-30T07:41:43.628Z,6.70
2023-01-30T07:44:14.953Z,5.97
2023-01-30T07:46:44.146Z,8.30
2023-01-30T07:49:12.922Z,5.53
2023-01-30T07:51:41.580Z,5.77
2023-01-30T07:54:10.321Z,5.97
2023-01-30T07:56:39.011Z,6.03
2023-01-30T07:59:08.056Z,6.20
2023-01-30T08:06:39.781Z,5.77
2023-01-30T08:09:08.362Z,5.47
2023-01-30T08:11:35.797Z,5.40
2023-01-30T08:14:03.391Z,5.57
2023-01-30T08:16:31.724Z,5.30
2023-01-30T08:18:59.314Z,5.77
2023-01-30T08:21:26.787Z,5.60
2023-01-30T08:28:58.140Z,5.37
2023-01-30T08:31:27.021Z,5.70
2023-01-30T08:33:55.743Z,4.83
2023-01-30T08:36:24.444Z,4.70
2023-01-30T08:38:53.162Z,4.27
2023-01-30T08:41:21.873Z,4.90
2023-01-30T08:43:50.652Z,4.40
2023-01-30T08:46:22.084Z,4.00
2023-01-30T08:48:50.797Z,3.77
2023-01-30T08:51:19.565Z,3.57
2023-01-30T08:53:48.331Z,4.00
2023-01-30T08:56:17.038Z,3.63
2023-01-30T08:58:46.683Z,3.50
2023-01-30T09:01:15.553Z,3.20
2023-01-30T09:03:45.669Z,2.80
2023-01-30T09:06:14.441Z,3.03
2023-01-30T09:08:43.175Z,3.50
2023-01-30T09:11:13.051Z,4.40
2023-01-30T09:13:43.721Z,3.00
2023-01-30T09:16:13.798Z,3.20
2023-01-30T09:18:45.116Z,4.50
2023-01-30T09:21:15.864Z,2.87
2023-01-30T09:23:44.662Z,2.60
2023-01-30T09:26:13.366Z,3.13
2023-01-30T09:28:42.135Z,2.77
2023-01-30T09:31:11.102Z,3.17
2023-01-30T09:33:39.888Z,2.67
2023-01-30T09:36:11.183Z,3.03
2023-01-30T09:38:39.885Z,3.30
2023-01-30T09:41:42.275Z,3.30
2023-01-30T09:44:54.941Z,3.33
2023-01-30T09:47:42.320Z,3.17
2023-01-30T09:50:31.846Z,3.03
2023-01-30T09:53:13.741Z,2.57
2023-01-30T09:55:43.403Z,3.10
2023-01-30T09:58:20.571Z,3.10
2023-01-30T10:00:52.974Z,2.63
2023-01-30T10:03:29.521Z,2.90
2023-01-30T10:06:06.849Z,2.50
2023-01-30T10:08:54.055Z,2.53
2023-01-30T10:11:47.964Z,2.10
2023-01-30T10:14:56.755Z,2.40
2023-01-30T10:17:41.494Z,2.33
2023-01-30T10:20:32.596Z,2.00
2023-01-30T10:23:20.850Z,2.10
2023-01-30T10:25:56.253Z,2.00
2023-01-30T10:28:33.249Z,2.80
2023-01-30T10:31:10.681Z,1.90
2023-01-30T10:33:50.380Z,2.10
2023-01-30T10:36:30.405Z,2.10
2023-01-30T10:39:03.996Z,1.70
2023-01-30T10:41:39.238Z,2.10
2023-01-30T10:44:13.559Z,1.80
2023-01-30T10:47:23.146Z,1.90
2023-01-30T10:49:56.344Z,2.00
2023-01-30T10:52:43.873Z,1.93
2023-01-30T10:55:37.588Z,1.70
2023-01-30T10:58:23.706Z,1.83
2023-01-30T11:01:01.500Z,1.67
2023-01-30T11:03:43.601Z,1.70
2023-01-30T11:06:17.847Z,1.70
2023-01-30T11:08:47.200Z,1.90
2023-01-30T11:11:29.252Z,2.07
2023-01-30T11:14:08.337Z,1.87
2023-01-30T11:16:47.783Z,1.90
2023-01-30T11:19:21.906Z,1.50
2023-01-30T11:21:54.306Z,2.10
2023-01-30T11:24:30.782Z,1.80
2023-01-30T11:27:13.229Z,2.20
2023-01-30T11:29:43.373Z,2.03
2023-01-30T11:32:20.893Z,2.60
2023-01-30T11:35:22.409Z,2.10
2023-01-30T11:37:53.552Z,2.10
2023-01-30T11:40:31.244Z,2.20
2023-01-30T11:43:07.572Z,2.27
2023-01-30T11:45:41.665Z,2.33
2023-01-30T11:48:33.467Z,2.20
2023-01-30T11:51:12.607Z,1.97
2023-01-30T11:53:47.084Z,2.43
2023-01-30T11:56:34.882Z,2.00
2023-01-30T11:59:08.467Z,2.33
2023-01-30T12:01:39.220Z,2.20
2023-01-30T12:04:13.933Z,1.97
2023-01-30T12:06:44.853Z,2.07
2023-01-30T12:09:34.665Z,2.30
2023-01-30T12:12:03.809Z,2.20
2023-01-30T12:14:45.113Z,2.30
2023-01-30T12:17:23.770Z,1.93
2023-01-30T12:20:04.183Z,2.37
2023-01-30T12:22:43.048Z,2.60
2023-01-30T12:25:21.917Z,2.03
2023-01-30T12:28:03.517Z,2.10
2023-01-30T12:30:43.425Z,2.13
2023-01-30T12:36:12.398Z,2.27
2023-01-30T12:39:03.251Z,2.40
2023-01-30T12:41:49.923Z,2.30
2023-01-30T12:45:01.495Z,2.50
2023-01-30T12:47:57.163Z,2.53
2023-01-30T12:50:44.571Z,2.87
2023-01-30T12:53:36.996Z,2.37
2023-01-30T12:56:39.514Z,2.70
2023-01-30T12:59:19.594Z,2.67
2023-01-30T13:02:06.787Z,2.23
2023-01-30T13:05:02.093Z,2.60
2023-01-30T13:07:48.273Z,2.33
2023-01-30T13:10:31.409Z,2.67
2023-01-30T13:13:19.290Z,2.73
2023-01-30T13:19:40.445Z,3.03
2023-01-30T13:22:22.740Z,2.13
2023-01-30T13:25:16.936Z,2.60
2023-01-30T13:27:54.571Z,2.37
2023-01-30T13:30:27.673Z,2.10
2023-01-30T13:33:05.050Z,2.43
2023-01-30T13:35:42.996Z,2.00
2023-01-30T13:38:22.334Z,2.40
2023-01-30T13:40:58.279Z,2.03
2023-01-30T13:43:33.476Z,1.80
2023-01-30T13:46:10.696Z,2.00
2023-01-30T13:48:56.029Z,2.00
2023-01-30T13:51:46.580Z,2.10
2023-01-30T13:54:44.162Z,2.40
2023-01-30T13:57:29.464Z,2.40
2023-01-30T14:00:25.995Z,1.93
2023-01-30T14:03:25.765Z,2.50
2023-01-30T14:06:28.079Z,2.20
2023-01-30T14:09:00.340Z,2.20
2023-01-30T14:11:48.031Z,1.77
2023-01-30T14:14:36.775Z,1.97
2023-01-30T14:17:18.721Z,2.87
2023-01-30T14:20:00.848Z,2.20
2023-01-30T14:22:55.540Z,2.13
2023-01-30T14:25:51.114Z,2.40
2023-01-30T14:28:51.061Z,2.33
2023-01-30T14:31:55.108Z,2.47
2023-01-30T14:35:06.507Z,1.90
2023-01-30T14:38:04.990Z,2.27
2023-01-30T14:40:50.090Z,2.60
2023-01-30T14:43:38.985Z,2.60
2023-01-30T14:46:54.448Z,2.37
2023-01-30T14:49:34.402Z,1.93
2023-01-30T14:52:05.671Z,1.90
2023-01-30T14:54:51.951Z,2.30
2023-01-30T14:57:27.925Z,1.73
2023-01-30T15:00:18.551Z,2.00
2023-01-30T15:02:57.551Z,1.80
2023-01-30T15:06:12.691Z,1.83
2023-01-30T15:09:03.044Z,1.67
2023-01-30T15:11:36.322Z,1.80
2023-01-30T15:14:17.800Z,1.90
2023-01-30T15:17:19.531Z,2.10
2023-01-30T15:20:30.368Z,1.83
2023-01-30T15:23:45.142Z,2.63
2023-01-30T15:26:54.595Z,2.10
2023-01-30T15:30:16.862Z,2.07
2023-01-30T15:32:46.609Z,3.13
2023-01-30T15:35:29.595Z,2.37
2023-01-30T15:37:59.334Z,2.13
2023-01-30T15:40:31.734Z,2.10
2023-01-30T15:43:23.670Z,2.10
2023-01-30T15:46:10.916Z,2.13
2023-01-30T15:49:06.521Z,2.37
2023-01-30T15:51:39.297Z,2.03
2023-01-30T15:54:19.851Z,2.50
2023-01-30T15:56:52.949Z,2.33
2023-01-30T15:59:34.514Z,2.60
2023-01-30T16:02:08.044Z,2.30
2023-01-30T16:04:36.915Z,2.40
2023-01-30T16:07:17.825Z,2.50
2023-01-30T16:10:06.764Z,2.50
2023-01-30T16:12:41.129Z,2.33
2023-01-30T16:15:21.316Z,2.43
2023-01-30T16:18:05.428Z,2.30
2023-01-30T16:20:59.213Z,2.80
2023-01-30T16:23:35.649Z,2.20
2023-01-30T16:26:08.842Z,2.60
2023-01-30T16:28:39.382Z,2.20
2023-01-30T16:31:11.005Z,2.37
2023-01-30T16:33:40.371Z,3.13
2023-01-30T16:36:39.054Z,1.93
2023-01-30T16:39:31.830Z,2.43
2023-01-30T16:42:02.975Z,2.20
2023-01-30T16:44:33.765Z,2.07
2023-01-30T16:47:06.475Z,2.03
2023-01-30T16:49:47.741Z,1.80
2023-01-30T16:52:24.298Z,3.80
2023-01-30T16:54:55.976Z,2.50
2023-01-30T16:57:36.298Z,2.10
2023-01-30T17:00:24.134Z,1.90
2023-01-30T17:02:57.343Z,3.13
2023-01-30T17:05:29.556Z,3.07
2023-01-30T17:08:00.668Z,2.10
2023-01-30T17:10:56.772Z,3.90
2023-01-30T17:13:38.454Z,1.50
2023-01-30T17:16:32.422Z,2.30
2023-01-30T17:19:01.678Z,2.13
2023-01-30T17:21:37.041Z,1.87
2023-01-30T17:24:07.751Z,2.10
2023-01-30T17:26:40.906Z,1.70
2023-01-30T17:29:23.574Z,1.77
2023-01-30T17:32:13.175Z,1.53
2023-01-30T17:34:43.202Z,1.50
2023-01-30T17:37:18.714Z,1.30
2023-01-30T17:39:52.921Z,1.67
2023-01-30T17:42:22.718Z,1.60
2023-01-30T17:44:51.682Z,1.50
2023-01-30T17:47:22.194Z,1.90
2023-01-30T17:53:45.068Z,1.60
2023-01-30T17:56:23.231Z,2.00
2023-01-30T17:58:52.185Z,1.83
2023-01-30T18:01:21.005Z,2.00
2023-01-30T18:03:53.127Z,1.50
2023-01-30T18:06:22.723Z,1.60
2023-01-30T18:08:53.799Z,1.40
2023-01-30T18:11:24.189Z,1.50
2023-01-30T18:13:54.263Z,1.90
2023-01-30T18:16:28.908Z,2.10
2023-01-30T18:19:03.807Z,1.43
2023-01-30T18:21:43.926Z,1.50
2023-01-30T18:24:13.812Z,1.20
2023-01-30T18:27:01.964Z,1.53
2023-01-30T18:29:32.737Z,1.87
2023-01-30T18:32:05.927Z,1.90
2023-01-30T18:34:38.033Z,1.60
2023-01-30T18:37:07.460Z,1.50
2023-01-30T18:39:37.023Z,1.63
2023-01-30T18:42:09.257Z,1.43
2023-01-30T18:44:38.511Z,1.70
2023-01-30T18:47:11.415Z,1.70
2023-01-30T18:49:42.380Z,1.50
2023-01-30T18:52:13.011Z,1.20
2023-01-30T18:54:42.836Z,1.97
2023-01-30T18:57:12.341Z,1.73
2023-01-30T18:59:41.736Z,1.60
2023-01-30T19:02:14.542Z,1.60
2023-01-30T19:04:45.996Z,1.70
2023-01-30T19:07:16.581Z,1.50
2023-01-30T19:09:45.845Z,2.00
2023-01-30T19:12:32.910Z,1.40
2023-01-30T19:15:03.684Z,1.60
2023-01-30T19:17:33.156Z,1.60
2023-01-30T19:20:08.947Z,1.67
2023-01-30T19:22:38.911Z,1.40
2023-01-30T19:25:10.272Z,1.93
2023-01-30T19:27:44.514Z,1.80
2023-01-30T19:30:15.809Z,1.70
2023-01-30T19:32:47.432Z,1.93
2023-01-30T19:35:19.022Z,1.37
2023-01-30T19:37:48.925Z,1.97
2023-01-30T19:40:21.415Z,1.93
2023-01-30T19:42:54.749Z,1.97
2023-01-30T19:45:26.838Z,2.07
2023-01-30T19:47:57.047Z,1.80
2023-01-30T19:50:28.662Z,2.37
2023-01-30T19:52:58.487Z,1.97
2023-01-30T19:55:29.165Z,2.33
2023-01-30T19:57:59.466Z,1.93
2023-01-30T20:00:28.489Z,1.80
2023-01-30T20:02:58.508Z,2.20
2023-01-30T20:05:29.194Z,1.80
2023-01-30T20:07:58.242Z,2.10
2023-01-30T20:10:28.385Z,2.00
2023-01-30T20:12:57.497Z,2.37
2023-01-30T20:15:28.558Z,1.70
2023-01-30T20:17:57.747Z,2.17
2023-01-30T20:20:30.465Z,1.70
2023-01-30T20:23:01.916Z,1.87
2023-01-30T20:25:31.745Z,2.00
2023-01-30T20:28:00.502Z,1.70
2023-01-30T20:30:29.416Z,2.07
2023-01-30T20:32:58.153Z,1.93
2023-01-30T20:35:28.308Z,1.77
2023-01-30T20:37:57.110Z,1.80
2023-01-30T20:40:25.763Z,2.00
2023-01-30T20:42:54.574Z,1.60
2023-01-30T20:45:23.358Z,1.63
2023-01-30T20:47:52.014Z,2.00
2023-01-30T20:50:21.069Z,2.20
2023-01-30T20:52:52.584Z,1.87
2023-01-30T20:55:21.904Z,2.00
2023-01-30T20:57:51.144Z,1.77
2023-01-30T21:00:21.173Z,1.87
2023-01-30T21:02:53.373Z,1.90
2023-01-30T21:05:22.103Z,3.63
2023-01-30T21:07:52.295Z,7.17
2023-01-30T21:10:21.151Z,2.20
2023-01-30T21:12:49.814Z,2.37
2023-01-30T21:15:19.053Z,2.07
2023-01-30T21:17:48.114Z,1.67
2023-01-30T21:20:17.664Z,2.03
2023-01-30T21:22:46.498Z,1.50
2023-01-30T21:25:16.752Z,1.80
2023-01-30T21:27:45.479Z,1.93
2023-01-30T21:30:14.974Z,1.67
2023-01-30T21:32:43.613Z,2.00
2023-01-30T21:35:12.333Z,2.10
2023-01-30T21:37:59.114Z,1.73
2023-01-30T21:40:46.647Z,1.83
2023-01-30T21:43:15.504Z,1.90
2023-01-30T21:45:44.730Z,2.10
2023-01-30T21:48:13.539Z,2.37
2023-01-30T21:50:42.270Z,1.97
2023-01-30T21:53:11.003Z,2.20
2023-01-30T21:55:41.165Z,2.23
2023-01-30T21:58:09.800Z,1.97
2023-01-30T22:00:38.848Z,2.20
2023-01-30T22:03:07.581Z,2.20
2023-01-30T22:05:37.575Z,2.43
2023-01-30T22:08:06.718Z,2.00
2023-01-30T22:10:35.462Z,1.87
2023-01-30T22:13:05.592Z,2.43
2023-01-30T22:15:34.335Z,2.10
2023-01-30T22:18:04.043Z,1.70
2023-01-30T22:20:32.928Z,2.20
2023-01-30T22:23:01.653Z,1.77
2023-01-30T22:25:30.303Z,2.20
2023-01-30T22:27:58.948Z,1.93
2023-01-30T22:30:29.006Z,1.50
2023-01-30T22:32:57.657Z,2.03
2023-01-30T22:35:26.331Z,1.67
2023-01-30T22:37:54.964Z,2.10
2023-01-30T22:40:23.612Z,1.83
2023-01-30T22:42:52.285Z,1.90
2023-01-30T22:45:21.244Z,1.90
2023-01-30T22:47:51.568Z,1.73
2023-01-30T22:50:21.495Z,2.03
2023-01-30T22:52:50.245Z,1.60
2023-01-30T22:55:19.201Z,1.97
2023-01-30T22:57:48.431Z,1.60
2023-01-30T23:00:18.004Z,1.80
2023-01-30T23:02:46.681Z,2.20
2023-01-30T23:05:17.372Z,2.40
2023-01-30T23:07:46.979Z,2.00
2023-01-30T23:10:15.871Z,1.90
2023-01-30T23:13:01.839Z,2.60
2023-01-30T23:15:30.439Z,3.00
2023-01-30T23:18:16.603Z,2.00
2023-01-30T23:20:46.813Z,1.87
2023-01-30T23:23:15.559Z,2.10
2023-01-30T23:25:44.999Z,1.73
2023-01-30T23:28:13.756Z,1.63
2023-01-30T23:30:42.594Z,2.07
2023-01-30T23:33:11.237Z,2.30
2023-01-30T23:35:40.227Z,1.90
2023-01-30T23:38:19.249Z,1.90
2023-01-30T23:40:49.667Z,1.93
2023-01-30T23:43:19.521Z,1.83
2023-01-30T23:45:48.297Z,1.90
2023-01-30T23:48:17.084Z,2.17
2023-01-30T23:50:45.853Z,2.07
2023-01-30T23:53:15.961Z,2.67
2023-01-30T23:55:52.794Z,2.80
2023-01-30T23:58:21.578Z,2.00
